Time;durP1;ratioP1;P1;durP2;ratioP2;P2;SDS_P1;SDS_P2;PMS_P1;PMS_P2;Temp;Humidity;BMP_temperature;BMP_pressure;BME280_temperature;BME280_humidity;BME280_pressure;Samples;Min_cycle;Max_cycle;Signal;HPM_P1;HPM_P2
2021/06/05 00:00:45;;;;;;;5.72;3.80;;;25.80;49.40;;;;;;5044772;28;20501;-61
2021/06/05 00:03:12;;;;;;;6.50;4.20;;;25.80;49.40;;;;;;5057466;28;20490;-61
2021/06/05 00:05:47;;;;;;;7.53;4.57;;;25.80;49.40;;;;;;5067219;28;20032;-61
2021/06/05 00:08:14;;;;;;;5.45;3.70;;;25.80;49.40;;;;;;5069083;28;20025;-61
2021/06/05 00:10:46;;;;;;;7.60;3.75;;;25.80;49.40;;;;;;5069604;28;20028;-61
2021/06/05 00:13:15;;;;;;;6.10;3.92;;;25.80;49.40;;;;;;5052417;28;20503;-61
2021/06/05 00:15:43;;;;;;;6.07;3.90;;;25.80;49.40;;;;;;5068468;28;20167;-61
2021/06/05 00:18:10;;;;;;;7.80;4.38;;;25.80;49.40;;;;;;5068908;28;20051;-61
2021/06/05 00:20:38;;;;;;;5.20;3.58;;;25.80;49.40;;;;;;5069869;28;20046;-62
2021/06/05 00:23:07;;;;;;;7.70;4.15;;;25.70;49.30;;;;;;5054733;28;20021;-62
2021/06/05 00:25:34;;;;;;;4.78;3.40;;;25.70;49.30;;;;;;5049186;28;20024;-62
2021/06/05 00:28:00;;;;;;;6.10;3.80;;;25.80;49.30;;;;;;5060530;28;20467;-62
2021/06/05 00:30:27;;;;;;;7.32;4.00;;;25.70;49.70;;;;;;5088993;28;20029;-62
2021/06/05 00:32:54;;;;;;;6.68;4.07;;;25.70;49.30;;;;;;5070493;28;20035;-62
2021/06/05 00:35:20;;;;;;;5.60;3.63;;;25.80;49.30;;;;;;5065100;28;20478;-61
2021/06/05 00:37:45;;;;;;;5.65;3.58;;;25.70;49.30;;;;;;5067751;28;20024;-62
2021/06/05 00:40:13;;;;;;;5.32;3.50;;;25.70;49.30;;;;;;5063466;28;20028;-61
2021/06/05 00:42:39;;;;;;;6.53;3.75;;;25.70;49.20;;;;;;5050800;28;20048;-62
2021/06/05 00:45:08;;;;;;;6.25;3.58;;;25.70;49.20;;;;;;5059344;28;20136;-61
2021/06/05 00:47:34;;;;;;;5.85;3.60;;;25.70;49.20;;;;;;5067014;28;20033;-62
2021/06/05 00:50:00;;;;;;;6.18;3.63;;;25.70;49.20;;;;;;5049021;28;20120;-62
2021/06/05 00:52:29;;;;;;;6.22;3.63;;;25.70;49.20;;;;;;5059351;28;20436;-62
2021/06/05 00:54:55;;;;;;;6.38;3.83;;;25.70;49.10;;;;;;5055565;28;20169;-61
2021/06/05 00:57:21;;;;;;;7.40;4.15;;;25.70;49.10;;;;;;5066317;28;20081;-61
2021/06/05 00:59:46;;;;;;;5.68;3.80;;;25.70;49.10;;;;;;5068545;28;20024;-61
2021/06/05 01:02:12;;;;;;;6.78;3.80;;;25.70;49.70;;;;;;5062893;28;20135;-61
2021/06/05 01:04:39;;;;;;;6.68;3.75;;;25.70;49.10;;;;;;5058572;28;20501;-61
2021/06/05 01:07:07;;;;;;;5.65;3.30;;;25.70;49.10;;;;;;5055482;28;20440;-61
2021/06/05 01:10:04;;;;;;;5.70;3.70;;;25.70;49.10;;;;;;5065225;28;20040;-61
2021/06/05 01:12:43;;;;;;;6.00;3.50;;;25.70;49.10;;;;;;5034425;28;20087;-61
2021/06/05 01:15:31;;;;;;;5.70;4.00;;;25.70;49.10;;;;;;5047719;28;20037;-61
2021/06/05 01:18:22;;;;;;;5.90;3.42;;;25.70;49.10;;;;;;5054841;28;20105;-62
2021/06/05 01:21:15;;;;;;;5.82;3.78;;;25.70;49.00;;;;;;5067785;28;20052;-60
2021/06/05 01:23:55;;;;;;;6.68;4.05;;;25.70;49.10;;;;;;5060006;28;20439;-61
2021/06/05 01:26:29;;;;;;;6.90;3.80;;;25.70;49.10;;;;;;5045220;28;20028;-63
2021/06/05 01:29:20;;;;;;;6.68;3.78;;;25.60;48.90;;;;;;5049777;28;20519;-62
2021/06/05 01:31:55;;;;;;;5.07;3.50;;;25.70;49.00;;;;;;5030571;28;20040;-62
2021/06/05 01:34:22;;;;;;;5.57;3.25;;;25.60;48.90;;;;;;5057079;28;20044;-62
2021/06/05 01:36:52;;;;;;;5.57;3.58;;;25.70;49.00;;;;;;5063078;28;20063;-61
2021/06/05 01:39:24;;;;;;;6.18;3.65;;;25.60;48.90;;;;;;5054883;28;20364;-62
2021/06/05 01:41:51;;;;;;;4.68;3.00;;;25.60;48.90;;;;;;5048844;28;20123;-62
2021/06/05 01:44:19;;;;;;;5.15;3.33;;;25.60;48.90;;;;;;5064681;28;20028;-62
2021/06/05 01:46:48;;;;;;;5.60;3.47;;;25.60;49.40;;;;;;5046820;28;20792;-61
2021/06/05 01:49:15;;;;;;;6.72;3.75;;;25.60;48.80;;;;;;5056426;28;20032;-62
2021/06/05 01:51:46;;;;;;;5.57;3.50;;;25.60;48.90;;;;;;5045851;28;20041;-61
2021/06/05 01:54:35;;;;;;;5.55;3.20;;;25.60;48.90;;;;;;5065983;28;20337;-62
2021/06/05 01:57:03;;;;;;;;;;;25.60;48.80;;;;;;5065313;28;20036;-62
2021/06/05 01:59:29;;;;;;;5.32;3.33;;;25.60;48.90;;;;;;5065771;28;20024;-62
2021/06/05 02:01:56;;;;;;;5.07;3.38;;;25.60;48.80;;;;;;5056752;28;20679;-62
2021/06/05 02:04:24;;;;;;;4.70;3.22;;;25.60;48.80;;;;;;5063678;28;20055;-62
2021/06/05 02:06:51;;;;;;;5.00;3.20;;;25.60;48.80;;;;;;5057862;28;20086;-62
2021/06/05 02:09:22;;;;;;;5.35;3.40;;;25.50;48.80;;;;;;5059177;28;20375;-62
2021/06/05 02:11:55;;;;;;;5.15;2.97;;;25.60;48.80;;;;;;5044683;28;20044;-63
2021/06/05 02:14:50;;;;;;;5.03;3.20;;;25.60;48.80;;;;;;5047482;28;20132;-63
2021/06/05 02:17:17;;;;;;;5.30;3.40;;;25.50;48.70;;;;;;5046725;28;20079;-63
2021/06/05 02:19:47;;;;;;;4.88;3.10;;;25.60;48.80;;;;;;5045761;28;20360;-63
2021/06/05 02:22:20;;;;;;;5.18;3.13;;;25.60;48.90;;;;;;5062888;28;20020;-61
2021/06/05 02:24:48;;;;;;;4.53;3.20;;;25.50;48.70;;;;;;5067134;28;20051;-63
2021/06/05 02:27:17;;;;;;;5.20;3.30;;;25.50;48.70;;;;;;5054892;28;20133;-63
2021/06/05 02:29:44;;;;;;;4.53;2.92;;;25.50;48.70;;;;;;5051952;28;20043;-62
2021/06/05 02:32:12;;;;;;;4.97;3.13;;;25.50;48.70;;;;;;5039545;28;20187;-62
2021/06/05 02:34:39;;;;;;;4.18;2.88;;;25.50;48.70;;;;;;5043776;28;20025;-62
2021/06/05 02:37:09;;;;;;;4.28;2.78;;;25.50;48.70;;;;;;5045777;28;20033;-62
2021/06/05 02:39:35;;;;;;;5.15;3.20;;;25.50;48.70;;;;;;5065233;28;20462;-62
2021/06/05 02:42:06;;;;;;;5.25;3.25;;;25.50;48.70;;;;;;5066361;28;20036;-62
2021/06/05 02:44:33;;;;;;;4.30;2.90;;;25.50;48.70;;;;;;5052580;28;20480;-62
2021/06/05 02:47:05;;;;;;;5.18;3.00;;;25.50;48.60;;;;;;5051794;28;20084;-61
2021/06/05 02:49:34;;;;;;;4.35;2.80;;;25.50;48.70;;;;;;5055585;28;20036;-61
2021/06/05 02:52:34;;;;;;;4.45;3.08;;;25.50;48.70;;;;;;5067004;28;20032;-61
2021/06/05 02:55:12;;;;;;;5.05;3.10;;;25.50;48.70;;;;;;5058666;28;20127;-61
2021/06/05 02:57:39;;;;;;;4.30;3.08;;;25.50;48.70;;;;;;5055940;28;20529;-61
2021/06/05 03:00:11;;;;;;;5.07;3.22;;;25.40;48.60;;;;;;5046880;28;20052;-61
2021/06/05 03:02:37;;;;;;;4.43;2.70;;;25.40;48.60;;;;;;5064633;28;20063;-61
2021/06/05 03:05:04;;;;;;;4.95;3.00;;;25.50;48.60;;;;;;5064175;28;20060;-61
2021/06/05 03:07:30;;;;;;;4.95;3.30;;;25.50;48.60;;;;;;5066576;28;20372;-62
2021/06/05 03:09:56;;;;;;;4.63;2.88;;;25.40;48.60;;;;;;5054187;28;20047;-61
2021/06/05 03:12:21;;;;;;;5.07;2.95;;;25.40;48.60;;;;;;5047519;28;20025;-61
2021/06/05 03:14:47;;;;;;;4.50;2.92;;;25.40;48.60;;;;;;5046310;28;20029;-61
2021/06/05 03:17:12;;;;;;;4.53;2.80;;;25.40;48.60;;;;;;5050741;28;20077;-61
2021/06/05 03:19:38;;;;;;;4.68;3.03;;;25.40;48.60;;;;;;5060692;28;20029;-61
2021/06/05 03:22:05;;;;;;;4.68;2.80;;;25.40;48.60;;;;;;5063002;28;20476;-61
2021/06/05 03:24:31;;;;;;;5.25;3.13;;;25.40;48.60;;;;;;5055728;28;20036;-61
2021/06/05 03:26:56;;;;;;;4.40;2.65;;;25.40;48.60;;;;;;5045801;28;20214;-61
2021/06/05 03:29:23;;;;;;;5.30;3.05;;;25.40;48.60;;;;;;5056029;28;20121;-61
2021/06/05 03:31:49;;;;;;;4.80;2.70;;;25.40;48.60;;;;;;5041588;28;20080;-60
2021/06/05 03:34:15;;;;;;;4.30;2.90;;;25.40;48.60;;;;;;5058859;28;20028;-61
2021/06/05 03:36:40;;;;;;;4.10;2.80;;;25.40;48.60;;;;;;5054302;28;20044;-61
2021/06/05 03:39:07;;;;;;;5.05;2.90;;;25.40;48.50;;;;;;5043489;28;20089;-61
2021/06/05 03:41:34;;;;;;;4.18;2.70;;;25.40;48.60;;;;;;5070308;28;20376;-61
2021/06/05 03:43:59;;;;;;;4.18;2.50;;;25.40;48.50;;;;;;5067710;28;20532;-61
2021/06/05 03:46:25;;;;;;;3.95;2.50;;;25.40;48.50;;;;;;5056047;28;20032;-61
2021/06/05 03:48:51;;;;;;;4.57;2.70;;;25.40;48.60;;;;;;5047063;28;20045;-61
2021/06/05 03:51:16;;;;;;;3.97;2.67;;;25.40;48.50;;;;;;5054158;28;20036;-61
2021/06/05 03:53:42;;;;;;;3.45;2.38;;;25.40;48.50;;;;;;5070908;28;20029;-61
2021/06/05 03:56:08;;;;;;;4.15;2.70;;;25.40;48.60;;;;;;5067728;28;20507;-61
2021/06/05 03:58:38;;;;;;;4.47;2.80;;;25.40;48.50;;;;;;5069425;28;20025;-61
2021/06/05 04:01:11;;;;;;;3.75;2.60;;;25.30;48.50;;;;;;5064031;28;20048;-60
2021/06/05 04:03:38;;;;;;;4.75;2.50;;;25.30;48.50;;;;;;5067130;28;20047;-62
2021/06/05 04:06:05;;;;;;;3.88;2.60;;;25.40;48.50;;;;;;5063518;28;20020;-61
2021/06/05 04:08:31;;;;;;;4.32;2.72;;;25.30;48.40;;;;;;5057445;28;20123;-61
2021/06/05 04:10:56;;;;;;;4.13;2.58;;;25.30;48.50;;;;;;5048853;28;20133;-61
2021/06/05 04:13:22;;;;;;;3.53;2.40;;;25.30;48.50;;;;;;5049785;28;20032;-61
2021/06/05 04:15:48;;;;;;;4.00;2.83;;;25.30;48.50;;;;;;5047166;28;20036;-61
2021/06/05 04:18:25;;;;;;;4.32;2.80;;;25.30;48.50;;;;;;5057565;28;20037;-62
2021/06/05 04:20:52;;;;;;;3.97;2.60;;;25.30;48.50;;;;;;5057772;28;20891;-61
2021/06/05 04:23:18;;;;;;;3.53;2.58;;;25.30;48.40;;;;;;5064025;28;20099;-61
2021/06/05 04:25:45;;;;;;;4.10;2.53;;;25.30;48.50;;;;;;5064417;28;20036;-61
2021/06/05 04:28:13;;;;;;;3.83;2.60;;;25.30;48.40;;;;;;5068535;28;20406;-61
2021/06/05 04:30:41;;;;;;;3.70;2.80;;;25.30;49.00;;;;;;5060913;28;20036;-61
2021/06/05 04:33:08;;;;;;;3.63;2.40;;;25.30;48.40;;;;;;5047225;28;20075;-61
2021/06/05 04:35:34;;;;;;;4.18;2.83;;;25.30;48.40;;;;;;5044833;28;20029;-61
2021/06/05 04:38:00;;;;;;;4.32;2.67;;;25.30;48.90;;;;;;5061812;28;20017;-61
2021/06/05 04:40:26;;;;;;;4.10;2.72;;;25.30;48.40;;;;;;5051429;28;20044;-62
2021/06/05 04:42:52;;;;;;;3.42;2.42;;;25.30;48.40;;;;;;5059985;28;20036;-62
2021/06/05 04:45:20;;;;;;;3.75;2.58;;;25.20;48.40;;;;;;5058175;28;20095;-61
2021/06/05 04:47:45;;;;;;;4.07;2.50;;;25.30;48.50;;;;;;5059995;28;20666;-61
2021/06/05 04:50:14;;;;;;;3.72;2.38;;;25.30;48.40;;;;;;5052549;28;20045;-61
2021/06/05 04:52:40;;;;;;;4.20;2.45;;;25.20;48.40;;;;;;5049996;28;20456;-61
2021/06/05 04:55:08;;;;;;;4.50;2.65;;;25.20;48.40;;;;;;5053255;28;20447;-61
2021/06/05 04:57:34;;;;;;;3.63;2.40;;;25.20;48.40;;;;;;5067188;28;20063;-61
2021/06/05 05:00:00;;;;;;;3.78;2.50;;;25.30;48.40;;;;;;5058399;28;20025;-62
2021/06/05 05:02:25;;;;;;;3.60;2.28;;;25.20;48.40;;;;;;5054740;28;20082;-62
2021/06/05 05:04:51;;;;;;;3.95;2.45;;;25.20;48.40;;;;;;5068032;28;20556;-61
2021/06/05 05:07:17;;;;;;;4.18;2.45;;;25.20;48.40;;;;;;5065449;28;20447;-61
2021/06/05 05:09:42;;;;;;;4.03;2.30;;;25.20;48.40;;;;;;5069489;28;20070;-61
2021/06/05 05:12:08;;;;;;;3.60;2.30;;;25.20;48.40;;;;;;5064897;28;20085;-61
2021/06/05 05:14:35;;;;;;;4.60;2.40;;;25.20;48.30;;;;;;5068920;28;20047;-61
2021/06/05 05:17:02;;;;;;;3.40;2.30;;;25.20;48.70;;;;;;5053851;28;20033;-62
2021/06/05 05:19:27;;;;;;;4.15;2.70;;;25.20;48.30;;;;;;5050849;28;20058;-62
2021/06/05 05:21:53;;;;;;;3.53;2.33;;;25.20;48.30;;;;;;5064409;28;20103;-61
2021/06/05 05:24:20;;;;;;;3.45;2.28;;;25.20;48.30;;;;;;5064004;28;20059;-61
2021/06/05 05:26:45;;;;;;;3.28;2.30;;;25.20;48.30;;;;;;5061693;28;20583;-61
2021/06/05 05:29:11;;;;;;;3.65;2.30;;;25.10;48.20;;;;;;5058972;28;20028;-61
2021/06/05 05:31:37;;;;;;;4.55;2.20;;;25.20;48.30;;;;;;5062158;28;20040;-61
2021/06/05 05:34:03;;;;;;;3.90;2.20;;;25.20;48.30;;;;;;5056971;28;20033;-61
2021/06/05 05:36:32;;;;;;;3.08;1.90;;;25.20;48.30;;;;;;5046400;28;20021;-62
2021/06/05 05:39:00;;;;;;;3.28;2.10;;;25.10;48.20;;;;;;5049309;28;20056;-61
2021/06/05 05:41:26;;;;;;;4.07;2.38;;;25.20;48.30;;;;;;5064838;28;20471;-61
2021/06/05 05:43:52;;;;;;;4.15;2.45;;;25.10;48.20;;;;;;5048957;28;20087;-61
2021/06/05 05:46:19;;;;;;;3.75;2.20;;;25.20;48.30;;;;;;5056322;28;20075;-61
2021/06/05 05:48:45;;;;;;;3.13;2.15;;;25.10;48.20;;;;;;5068250;28;20028;-61
2021/06/05 05:51:14;;;;;;;3.55;2.30;;;25.20;48.30;;;;;;5065911;28;20550;-61
2021/06/05 05:53:40;;;;;;;3.22;2.22;;;25.10;48.20;;;;;;5049751;28;20033;-62
2021/06/05 05:56:12;;;;;;;3.20;2.17;;;25.10;48.20;;;;;;5057903;28;20131;-61
2021/06/05 05:58:40;;;;;;;3.53;2.25;;;25.10;48.20;;;;;;5057983;28;20020;-61
2021/06/05 06:01:09;;;;;;;3.95;2.40;;;25.10;48.20;;;;;;5065350;28;20056;-61
2021/06/05 06:03:35;;;;;;;3.00;2.00;;;25.10;48.20;;;;;;5052987;28;20032;-62
2021/06/05 06:06:00;;;;;;;3.80;2.50;;;25.10;48.20;;;;;;5057584;28;20324;-61
2021/06/05 06:08:27;;;;;;;2.83;2.00;;;25.10;48.20;;;;;;5061946;28;20056;-61
2021/06/05 06:10:53;;;;;;;3.17;2.00;;;25.10;48.20;;;;;;5062594;28;20040;-62
2021/06/05 06:13:19;;;;;;;3.80;2.40;;;25.10;48.20;;;;;;5054106;28;20025;-61
2021/06/05 06:15:44;;;;;;;4.18;2.45;;;25.10;48.20;;;;;;5056293;28;20874;-62
2021/06/05 06:18:12;;;;;;;3.53;2.10;;;25.10;48.20;;;;;;5053085;28;20025;-61
2021/06/05 06:20:47;;;;;;;3.22;1.95;;;25.10;48.20;;;;;;5062924;28;20020;-61
2021/06/05 06:23:15;;;;;;;2.97;1.80;;;25.10;48.20;;;;;;5058974;28;20025;-61
2021/06/05 06:25:43;;;;;;;3.33;1.90;;;25.10;48.30;;;;;;5058676;28;20146;-62
2021/06/05 06:28:13;;;;;;;2.47;1.80;;;25.10;48.20;;;;;;5062559;28;20569;-61
2021/06/05 06:30:41;;;;;;;2.95;1.83;;;25.10;48.20;;;;;;5062017;28;20032;-61
2021/06/05 06:33:08;;;;;;;3.17;1.90;;;25.10;48.20;;;;;;5055293;28;20024;-61
2021/06/05 06:35:36;;;;;;;3.55;2.10;;;25.10;48.20;;;;;;5059999;28;20738;-61
2021/06/05 06:38:03;;;;;;;3.30;2.00;;;25.10;48.20;;;;;;5060393;28;20040;-61
2021/06/05 06:40:32;;;;;;;3.28;2.15;;;25.10;48.30;;;;;;5058190;28;20464;-62
2021/06/05 06:42:59;;;;;;;3.28;2.20;;;25.10;48.20;;;;;;5060127;28;20016;-60
2021/06/05 06:45:25;;;;;;;3.25;2.03;;;25.10;48.20;;;;;;5062482;28;20037;-61
2021/06/05 06:47:51;;;;;;;2.95;1.95;;;25.10;48.20;;;;;;5056205;28;20058;-61
2021/06/05 06:50:19;;;;;;;3.40;2.10;;;25.10;48.20;;;;;;5054057;28;20112;-61
2021/06/05 06:52:45;;;;;;;2.53;1.70;;;25.10;48.20;;;;;;5058887;28;20060;-61
2021/06/05 06:55:12;;;;;;;2.90;1.88;;;25.10;48.20;;;;;;5067534;28;20048;-61
2021/06/05 06:57:38;;;;;;;3.10;2.20;;;25.10;48.20;;;;;;5056969;28;20020;-61
2021/06/05 07:00:12;;;;;;;3.13;1.95;;;25.10;48.20;;;;;;5059168;28;20422;-61
2021/06/05 07:02:37;;;;;;;2.90;1.95;;;25.10;48.20;;;;;;5057441;28;20041;-61
2021/06/05 07:05:04;;;;;;;3.05;1.90;;;25.10;48.20;;;;;;5060900;28;20385;-61
2021/06/05 07:07:30;;;;;;;2.80;2.00;;;25.10;48.20;;;;;;5046486;28;20072;-61
2021/06/05 07:09:56;;;;;;;3.28;1.90;;;25.10;48.20;;;;;;5067178;28;20060;-61
2021/06/05 07:12:22;;;;;;;2.88;1.90;;;25.10;48.20;;;;;;5063677;28;20393;-62
2021/06/05 07:14:48;;;;;;;2.80;1.95;;;25.10;48.20;;;;;;5057920;28;20090;-62
2021/06/05 07:17:13;;;;;;;2.92;2.10;;;25.10;48.20;;;;;;5059089;28;20016;-61
2021/06/05 07:19:39;;;;;;;2.50;1.70;;;25.00;48.20;;;;;;5057168;28;20024;-61
2021/06/05 07:22:05;;;;;;;2.80;1.80;;;25.10;48.20;;;;;;5050757;28;20036;-61
2021/06/05 07:24:31;;;;;;;2.50;1.65;;;25.10;48.20;;;;;;5065495;28;20090;-61
2021/06/05 07:26:56;;;;;;;2.53;1.67;;;25.10;48.20;;;;;;5059041;28;20035;-61
2021/06/05 07:29:22;;;;;;;3.20;1.80;;;25.10;48.20;;;;;;5047834;28;20115;-61
2021/06/05 07:31:51;;;;;;;3.47;1.92;;;25.10;48.20;;;;;;5051497;28;20048;-61
2021/06/05 07:34:21;;;;;;;2.75;1.65;;;25.10;48.20;;;;;;5047478;28;20021;-62
2021/06/05 07:36:53;;;;;;;2.60;1.58;;;25.10;48.20;;;;;;5045037;28;20056;-61
2021/06/05 07:39:22;;;;;;;2.53;1.60;;;25.10;48.20;;;;;;5065217;28;20024;-61
2021/06/05 07:41:48;;;;;;;3.17;2.10;;;25.10;48.20;;;;;;5055851;28;20058;-61
2021/06/05 07:44:14;;;;;;;3.88;1.80;;;25.10;48.20;;;;;;5065199;28;20032;-60
2021/06/05 07:46:42;;;;;;;2.63;1.70;;;25.10;48.20;;;;;;5062667;28;20032;-61
2021/06/05 07:49:07;;;;;;;2.63;1.80;;;25.00;48.20;;;;;;5054619;28;20048;-61
2021/06/05 07:51:34;;;;;;;2.72;1.70;;;25.10;48.20;;;;;;5063835;28;20021;-61
2021/06/05 07:53:59;;;;;;;2.85;1.70;;;25.00;48.20;;;;;;5047127;28;20513;-61
2021/06/05 07:56:25;;;;;;;3.13;1.92;;;25.10;48.30;;;;;;5054350;28;20116;-61
2021/06/05 07:58:50;;;;;;;2.55;1.75;;;25.00;48.20;;;;;;5055899;28;20032;-61
2021/06/05 08:01:16;;;;;;;3.90;1.85;;;25.00;48.20;;;;;;5044659;28;20037;-61
2021/06/05 08:03:42;;;;;;;2.30;1.50;;;25.10;48.20;;;;;;5058418;28;20036;-61
2021/06/05 08:06:08;;;;;;;2.42;1.70;;;25.00;48.20;;;;;;5063720;28;20494;-61
2021/06/05 08:08:34;;;;;;;2.63;1.60;;;25.10;48.20;;;;;;5064734;28;20032;-61
2021/06/05 08:10:59;;;;;;;2.53;1.52;;;25.00;48.20;;;;;;5049135;28;20028;-60
2021/06/05 08:13:25;;;;;;;2.33;1.58;;;25.00;48.10;;;;;;5055063;28;20154;-61
2021/06/05 08:15:51;;;;;;;2.50;1.60;;;25.00;48.10;;;;;;5064320;28;20352;-61
2021/06/05 08:18:19;;;;;;;2.50;1.63;;;25.00;48.20;;;;;;5060908;28;20104;-59
2021/06/05 08:20:55;;;;;;;3.38;1.92;;;25.00;48.20;;;;;;5045178;28;20029;-61
2021/06/05 08:23:27;;;;;;;2.13;1.42;;;25.00;48.20;;;;;;5060773;28;20032;-61
2021/06/05 08:25:53;;;;;;;2.15;1.52;;;25.00;48.10;;;;;;5065356;28;20032;-61
2021/06/05 08:28:23;;;;;;;2.85;1.70;;;25.00;48.10;;;;;;5067486;28;20353;-61
2021/06/05 08:30:52;;;;;;;2.55;1.67;;;25.00;48.10;;;;;;5052139;28;20094;-61
2021/06/05 08:33:19;;;;;;;2.70;1.60;;;25.00;48.20;;;;;;5051415;28;20025;-61
2021/06/05 08:35:45;;;;;;;2.83;1.63;;;25.00;48.10;;;;;;5065214;28;20123;-61
2021/06/05 08:38:13;;;;;;;2.70;1.65;;;25.00;48.20;;;;;;5048692;28;20112;-61
2021/06/05 08:40:42;;;;;;;2.80;1.70;;;25.00;48.20;;;;;;5061263;28;20053;-61
2021/06/05 08:43:10;;;;;;;2.38;1.52;;;25.00;48.20;;;;;;5066231;28;20420;-61
2021/06/05 08:45:37;;;;;;;2.33;1.48;;;25.00;48.20;;;;;;5069134;28;20101;-60
2021/06/05 08:48:06;;;;;;;2.58;1.60;;;25.00;48.20;;;;;;5049893;28;20025;-61
2021/06/05 08:50:32;;;;;;;2.25;1.60;;;25.00;48.20;;;;;;5057024;28;20744;-61
2021/06/05 08:53:21;;;;;;;2.25;1.55;;;25.00;48.20;;;;;;5068749;28;20059;-61
2021/06/05 08:55:51;;;;;;;2.80;1.50;;;25.00;48.20;;;;;;5061676;28;20025;-61
2021/06/05 08:58:34;;;;;;;2.80;1.70;;;25.00;48.20;;;;;;5057222;28;20035;-61
2021/06/05 09:01:10;;;;;;;2.92;1.50;;;25.00;48.20;;;;;;5055110;28;20727;-59
2021/06/05 09:03:39;;;;;;;2.00;1.30;;;25.00;48.20;;;;;;5069762;28;20347;-61
2021/06/05 09:06:07;;;;;;;2.10;1.35;;;25.00;48.20;;;;;;5068241;28;20052;-61
2021/06/05 09:08:33;;;;;;;2.42;1.50;;;25.00;48.20;;;;;;5059493;28;20108;-61
2021/06/05 09:11:01;;;;;;;2.30;1.33;;;24.90;48.10;;;;;;5048994;28;20029;-61
2021/06/05 09:13:27;;;;;;;2.70;1.40;;;25.00;48.20;;;;;;5061099;28;20060;-61
2021/06/05 09:16:23;;;;;;;2.40;1.50;;;25.00;48.20;;;;;;5066082;28;20028;-62
2021/06/05 09:19:14;;;;;;;2.58;1.52;;;25.00;48.20;;;;;;5049166;28;20036;-61
2021/06/05 09:21:56;;;;;;;1.70;1.17;;;25.00;48.20;;;;;;5047838;28;20052;-61
2021/06/05 09:24:25;;;;;;;2.75;1.58;;;25.00;48.20;;;;;;5049463;28;20941;-61
2021/06/05 09:27:22;;;;;;;2.87;1.40;;;24.90;48.10;;;;;;5051175;28;20029;-61
2021/06/05 09:30:00;;;;;;;2.28;1.52;;;25.00;48.20;;;;;;5060176;28;20279;-61
2021/06/05 09:32:30;;;;;;;2.47;1.40;;;25.00;48.20;;;;;;5060819;28;20595;-61
2021/06/05 09:35:05;;;;;;;1.73;1.23;;;24.90;48.10;;;;;;5067711;28;20024;-61
2021/06/05 09:37:44;;;;;;;2.05;1.25;;;25.00;48.20;;;;;;5061535;28;20029;-61
2021/06/05 09:40:19;;;;;;;2.25;1.40;;;25.00;48.20;;;;;;5053942;28;20032;-61
2021/06/05 09:42:52;;;;;;;2.70;1.50;;;25.00;48.20;;;;;;5048752;28;20029;-61
2021/06/05 09:45:30;;;;;;;2.10;1.38;;;25.00;48.20;;;;;;5064306;28;20024;-61
2021/06/05 09:48:38;;;;;;;2.00;1.50;;;25.00;48.10;;;;;;5060921;28;20119;-61
2021/06/05 09:51:36;;;;;;;1.92;1.35;;;25.00;48.10;;;;;;5062005;28;20051;-61
2021/06/05 09:54:13;;;;;;;2.05;1.23;;;24.90;48.10;;;;;;5050407;28;20033;-61
2021/06/05 09:56:48;;;;;;;2.20;1.40;;;25.00;48.20;;;;;;5067726;28;20029;-61
2021/06/05 09:59:17;;;;;;;2.22;1.35;;;25.00;48.10;;;;;;5057284;28;20048;-61
2021/06/05 10:02:02;;;;;;;1.95;1.33;;;25.00;48.20;;;;;;5060718;28;20040;-61
2021/06/05 10:04:30;;;;;;;2.42;1.50;;;24.90;48.10;;;;;;5064543;28;20037;-63
2021/06/05 10:06:58;;;;;;;1.58;1.20;;;24.90;48.10;;;;;;5055476;28;20475;-62
2021/06/05 10:09:27;;;;;;;1.73;1.20;;;24.90;48.10;;;;;;5060909;28;20332;-62
2021/06/05 10:11:54;;;;;;;2.10;1.25;;;25.00;48.10;;;;;;5056429;28;20067;-62
2021/06/05 10:14:22;;;;;;;2.30;1.27;;;25.00;48.20;;;;;;5068740;28;20028;-60
2021/06/05 10:17:00;;;;;;;1.90;1.27;;;25.00;48.10;;;;;;5048049;28;20028;-61
2021/06/05 10:19:35;;;;;;;2.67;1.58;;;25.00;48.10;;;;;;5048761;28;20036;-61
2021/06/05 10:22:01;;;;;;;2.20;1.38;;;24.90;48.10;;;;;;5060993;28;20032;-62
2021/06/05 10:24:55;;;;;;;1.83;1.20;;;25.00;48.20;;;;;;5061539;28;20104;-60
2021/06/05 10:27:31;;;;;;;1.60;1.15;;;25.00;48.10;;;;;;5049431;28;20812;-60
2021/06/05 10:30:03;;;;;;;2.05;1.23;;;25.00;48.10;;;;;;5059319;28;20124;-62
2021/06/05 10:32:41;;;;;;;1.73;1.20;;;25.00;48.60;;;;;;5044509;28;20049;-62
2021/06/05 10:35:22;;;;;;;1.90;1.20;;;25.00;48.10;;;;;;5047701;28;20078;-61
2021/06/05 10:37:48;;;;;;;1.60;1.10;;;25.00;48.10;;;;;;5044609;28;20132;-61
2021/06/05 10:40:25;;;;;;;1.63;1.25;;;25.00;48.10;;;;;;5051506;28;20500;-61
2021/06/05 10:42:53;;;;;;;2.08;1.20;;;24.90;48.00;;;;;;5060214;28;20029;-60
2021/06/05 10:45:27;;;;;;;1.88;1.23;;;25.00;48.10;;;;;;5059551;28;20442;-61
2021/06/05 10:48:01;;;;;;;1.55;1.05;;;25.00;48.10;;;;;;5059516;28;20108;-61
2021/06/05 10:50:34;;;;;;;1.60;1.10;;;25.00;48.10;;;;;;5048082;28;20033;-61
2021/06/05 10:53:27;;;;;;;1.98;1.30;;;25.00;48.10;;;;;;5051133;28;20036;-62
2021/06/05 10:55:56;;;;;;;1.75;1.25;;;24.90;48.00;;;;;;5049631;28;20124;-62
2021/06/05 10:58:25;;;;;;;1.65;1.17;;;25.00;48.00;;;;;;5053479;28;20067;-62
2021/06/05 11:01:00;;;;;;;2.03;1.10;;;25.00;48.00;;;;;;5053357;28;20404;-63
2021/06/05 11:03:26;;;;;;;3.00;1.20;;;24.90;48.00;;;;;;5056495;28;20041;-62
2021/06/05 11:06:12;;;;;;;1.65;1.10;;;25.00;48.00;;;;;;5059628;28;20466;-62
2021/06/05 11:08:48;;;;;;;1.25;0.98;;;24.90;48.00;;;;;;5044817;28;20029;-63
2021/06/05 11:11:33;;;;;;;1.73;1.00;;;25.00;48.00;;;;;;5050467;28;20052;-61
2021/06/05 11:14:07;;;;;;;1.42;1.05;;;24.90;47.90;;;;;;5047472;28;20037;-61
2021/06/05 11:16:58;;;;;;;1.67;1.10;;;25.00;48.00;;;;;;5043776;28;20068;-62
2021/06/05 11:19:41;;;;;;;1.63;1.13;;;25.00;48.00;;;;;;5049610;28;20052;-61
2021/06/05 11:22:18;;;;;;;1.58;1.08;;;25.00;48.00;;;;;;5054630;28;20039;-61
2021/06/05 11:25:04;;;;;;;2.70;1.40;;;25.00;48.00;;;;;;5046520;28;20091;-61
2021/06/05 11:27:52;;;;;;;1.45;1.00;;;25.00;48.00;;;;;;5046197;28;20515;-61
2021/06/05 11:30:21;;;;;;;1.45;1.00;;;24.90;48.40;;;;;;5060901;28;20467;-61
2021/06/05 11:32:54;;;;;;;1.25;1.00;;;25.00;48.00;;;;;;5041208;28;20124;-61
2021/06/05 11:35:32;;;;;;;1.48;1.00;;;24.90;47.90;;;;;;5054463;28;20029;-61
2021/06/05 11:38:01;;;;;;;1.10;0.90;;;25.00;48.00;;;;;;5043626;28;20129;-62
2021/06/05 11:41:08;;;;;;;1.63;1.05;;;25.00;48.00;;;;;;5061110;28;20065;-61
2021/06/05 11:43:33;;;;;;;1.48;0.90;;;25.00;48.00;;;;;;5050061;28;20104;-62
2021/06/05 11:46:11;;;;;;;1.17;0.82;;;25.00;48.00;;;;;;5052737;28;20036;-62
2021/06/05 11:48:51;;;;;;;1.95;1.10;;;25.00;48.00;;;;;;5060984;28;20112;-61
2021/06/05 11:51:20;;;;;;;2.17;1.13;;;25.00;47.90;;;;;;5047592;28;20091;-62
2021/06/05 11:53:47;;;;;;;1.77;1.20;;;25.00;47.90;;;;;;5049288;28;20055;-62
2021/06/05 11:56:12;;;;;;;1.63;1.08;;;25.00;47.90;;;;;;5056207;28;20021;-62
2021/06/05 11:58:39;;;;;;;1.55;1.10;;;25.00;47.90;;;;;;5048486;28;20428;-63
2021/06/05 12:01:33;;;;;;;1.27;0.95;;;25.00;47.90;;;;;;5046923;28;20041;-61
2021/06/05 12:04:06;;;;;;;1.45;0.90;;;25.00;47.90;;;;;;5049739;28;20060;-61
2021/06/05 12:06:45;;;;;;;1.50;1.08;;;25.00;47.90;;;;;;5054538;28;20032;-62
2021/06/05 12:09:24;;;;;;;1.23;0.80;;;25.00;47.90;;;;;;5052094;28;20108;-62
2021/06/05 12:11:54;;;;;;;1.15;0.75;;;25.00;47.90;;;;;;5059264;28;20047;-62
2021/06/05 12:17:19;;;;;;;1.03;0.80;;;25.00;47.90;;;;;;5055194;28;20029;-62
2021/06/05 12:19:45;;;;;;;1.00;0.90;;;25.00;47.80;;;;;;5054661;28;20104;-61
2021/06/05 12:22:27;;;;;;;1.50;1.10;;;25.00;47.90;;;;;;5056028;28;20211;-61
2021/06/05 12:24:54;;;;;;;1.70;1.00;;;25.00;47.80;;;;;;5065064;28;20079;-62
2021/06/05 12:27:27;;;;;;;1.70;1.10;;;25.00;47.90;;;;;;5066513;28;20103;-62
2021/06/05 12:30:12;;;;;;;1.75;1.00;;;25.00;47.90;;;;;;5053356;28;20033;-62
2021/06/05 12:32:41;;;;;;;0.90;0.80;;;25.00;47.90;;;;;;5051922;28;20665;-61
2021/06/05 12:35:26;;;;;;;1.27;0.98;;;25.00;47.90;;;;;;5049433;28;20021;-65
2021/06/05 12:37:55;;;;;;;1.73;0.98;;;25.00;47.80;;;;;;5056705;28;20731;-62
2021/06/05 12:40:41;;;;;;;1.50;0.98;;;25.00;47.90;;;;;;5052178;28;20404;-63
2021/06/05 12:43:09;;;;;;;1.45;0.93;;;25.00;47.80;;;;;;5053257;28;20083;-62
2021/06/05 12:45:37;;;;;;;1.88;1.02;;;25.00;48.30;;;;;;5054608;28;20055;-63
2021/06/05 12:48:04;;;;;;;1.45;1.00;;;25.00;47.80;;;;;;5052261;28;20041;-62
2021/06/05 12:50:35;;;;;;;1.77;1.00;;;25.00;47.80;;;;;;5052138;28;20029;-62
2021/06/05 12:53:04;;;;;;;1.13;0.80;;;25.00;47.80;;;;;;5054691;28;20040;-63
2021/06/05 12:55:41;;;;;;;1.83;1.10;;;25.00;47.80;;;;;;5060826;28;20047;-62
2021/06/05 12:58:10;;;;;;;1.38;1.05;;;25.00;47.80;;;;;;5052097;28;21065;-62
2021/06/05 13:00:38;;;;;;;1.73;0.95;;;25.00;47.80;;;;;;5059128;28;20539;-62
2021/06/05 13:03:06;;;;;;;1.58;1.00;;;25.00;47.80;;;;;;5061719;28;20040;-62
2021/06/05 13:05:35;;;;;;;1.20;0.90;;;25.00;47.70;;;;;;5065936;28;20039;-62
2021/06/05 13:08:19;;;;;;;1.88;1.00;;;25.00;47.70;;;;;;5056895;28;20131;-63